createdAt,value
2023-05-05T00:02:28.384Z,6.70
2023-05-05T00:04:58.768Z,7.10
2023-05-05T00:07:29.023Z,7.40
2023-05-05T00:09:59.177Z,8.20
2023-05-05T00:12:29.410Z,6.60
2023-05-05T00:14:59.847Z,6.00
2023-05-05T00:17:30.051Z,7.00
2023-05-05T00:20:00.925Z,5.40
2023-05-05T00:22:31.250Z,6.30
2023-05-05T00:25:01.479Z,5.30
2023-05-05T00:27:31.650Z,5.70
2023-05-05T00:30:01.853Z,5.70
2023-05-05T00:32:32.103Z,5.60
2023-05-05T00:35:02.342Z,6.70
2023-05-05T00:37:32.537Z,5.60
2023-05-05T00:40:03.908Z,5.20
2023-05-05T00:42:42.483Z,5.30
2023-05-05T00:45:14.983Z,6.80
2023-05-05T00:47:46.257Z,6.30
2023-05-05T00:50:23.531Z,6.20
2023-05-05T00:52:56.444Z,4.60
2023-05-05T00:57:56.618Z,6.20
2023-05-05T01:00:27.110Z,6.20
2023-05-05T01:02:58.771Z,7.30
2023-05-05T01:05:31.892Z,5.30
2023-05-05T01:08:11.679Z,6.50
2023-05-05T01:10:44.168Z,6.60
2023-05-05T01:13:25.428Z,8.30
2023-05-05T01:16:02.463Z,8.00
2023-05-05T01:18:36.642Z,7.70
2023-05-05T01:21:10.963Z,5.80
2023-05-05T01:23:54.631Z,6.60
2023-05-05T01:26:42.661Z,6.30
2023-05-05T01:29:33.441Z,5.30
2023-05-05T01:32:06.496Z,5.90
2023-05-05T01:34:43.219Z,6.60
2023-05-05T01:37:15.490Z,6.70
2023-05-05T01:39:46.053Z,5.90
2023-05-05T01:42:18.625Z,6.50
2023-05-05T01:44:50.132Z,5.90
2023-05-05T01:47:22.668Z,6.80
2023-05-05T01:49:53.469Z,5.10
2023-05-05T01:52:24.909Z,5.80
2023-05-05T01:54:55.898Z,5.40
2023-05-05T01:57:27.148Z,6.00
2023-05-05T01:59:57.833Z,7.60
2023-05-05T02:02:28.381Z,6.00
2023-05-05T02:04:59.081Z,5.70
2023-05-05T02:07:29.777Z,7.70
2023-05-05T02:10:00.569Z,5.40
2023-05-05T02:12:31.608Z,9.10
2023-05-05T02:15:03.988Z,7.10
2023-05-05T02:17:34.369Z,6.40
2023-05-05T02:20:06.184Z,6.70
2023-05-05T02:22:36.539Z,9.30
2023-05-05T02:25:08.601Z,6.30
2023-05-05T02:27:40.105Z,6.60
2023-05-05T02:30:12.504Z,6.30
2023-05-05T02:32:49.042Z,7.00
2023-05-05T02:35:22.073Z,5.30
2023-05-05T02:37:59.578Z,6.20
2023-05-05T02:40:32.975Z,7.20
2023-05-05T02:43:10.062Z,6.40
2023-05-05T02:45:40.475Z,6.90
2023-05-05T02:48:12.866Z,7.00
2023-05-05T02:50:43.205Z,6.60
2023-05-05T02:53:30.364Z,5.70
2023-05-05T02:56:09.361Z,6.40
2023-05-05T02:58:50.105Z,4.90
2023-05-05T03:01:29.146Z,5.60
2023-05-05T03:04:07.428Z,6.70
2023-05-05T03:06:43.728Z,5.30
2023-05-05T03:09:21.472Z,6.80
2023-05-05T03:11:55.956Z,8.70
2023-05-05T03:14:27.270Z,8.80
2023-05-05T03:16:58.293Z,7.00
2023-05-05T03:19:28.821Z,7.30
2023-05-05T03:22:02.015Z,6.10
2023-05-05T03:24:32.473Z,6.70
2023-05-05T03:27:06.990Z,6.60
2023-05-05T03:29:40.262Z,8.90
2023-05-05T03:32:14.035Z,9.20
2023-05-05T03:34:44.513Z,7.30
2023-05-05T03:37:14.807Z,8.10
2023-05-05T03:39:45.370Z,6.10
2023-05-05T03:42:15.902Z,6.50
2023-05-05T03:44:46.136Z,24.20
2023-05-05T03:47:17.203Z,6.10
2023-05-05T03:49:48.367Z,7.10
2023-05-05T03:52:18.827Z,9.30
2023-05-05T03:54:49.121Z,7.70
2023-05-05T03:57:19.298Z,6.50
2023-05-05T03:59:49.719Z,8.80
2023-05-05T04:02:20.142Z,6.60
2023-05-05T04:04:50.669Z,6.40
2023-05-05T04:07:22.751Z,6.80
2023-05-05T04:09:53.478Z,7.10
2023-05-05T04:12:23.836Z,7.80
2023-05-05T04:14:54.433Z,5.90
2023-05-05T04:17:25.268Z,6.00
2023-05-05T04:19:55.660Z,8.50
2023-05-05T04:22:26.183Z,6.00
2023-05-05T04:24:57.326Z,7.00
2023-05-05T04:27:30.451Z,6.60
2023-05-05T04:30:01.429Z,7.30
2023-05-05T04:32:33.565Z,7.60
2023-05-05T04:35:04.989Z,7.30
2023-05-05T04:37:35.820Z,7.60
2023-05-05T04:40:09.235Z,6.70
2023-05-05T04:42:39.796Z,7.60
2023-05-05T04:45:11.847Z,7.80
2023-05-05T04:47:42.237Z,10.30
2023-05-05T04:50:13.798Z,9.60
2023-05-05T04:52:44.025Z,5.90
2023-05-05T04:55:14.784Z,6.10
2023-05-05T04:57:45.045Z,8.90
2023-05-05T05:00:17.037Z,7.10
2023-05-05T05:02:47.418Z,7.50
2023-05-05T05:05:17.962Z,7.30
2023-05-05T05:07:48.470Z,8.70
2023-05-05T05:10:19.066Z,7.50
2023-05-05T05:12:51.153Z,8.20
2023-05-05T05:15:21.402Z,9.40
2023-05-05T05:17:51.896Z,9.70
2023-05-05T05:20:22.508Z,14.60
2023-05-05T05:22:53.259Z,7.90
2023-05-05T05:25:24.155Z,6.40
2023-05-05T05:28:08.392Z,7.70
2023-05-05T05:30:42.699Z,6.70
2023-05-05T05:33:13.392Z,9.80
2023-05-05T05:35:44.178Z,8.50
2023-05-05T05:38:15.142Z,8.30
2023-05-05T05:40:45.736Z,6.70
2023-05-05T05:43:16.561Z,6.80
2023-05-05T05:45:46.940Z,8.00
2023-05-05T05:48:17.572Z,9.40
2023-05-05T05:50:47.985Z,7.10
2023-05-05T05:53:18.205Z,6.90
2023-05-05T05:55:49.560Z,7.90
2023-05-05T05:58:19.865Z,9.20
2023-05-05T06:00:51.543Z,7.50
2023-05-05T06:03:22.061Z,8.00
2023-05-05T06:05:52.328Z,7.40
2023-05-05T06:08:24.799Z,9.10
2023-05-05T06:10:56.141Z,8.00
2023-05-05T06:13:27.119Z,8.50
2023-05-05T06:15:58.269Z,9.60
2023-05-05T06:18:28.688Z,8.80
2023-05-05T06:21:00.274Z,12.80
2023-05-05T06:23:31.296Z,7.20
2023-05-05T06:26:05.849Z,8.80
2023-05-05T06:28:36.041Z,7.50
2023-05-05T06:31:06.330Z,9.50
2023-05-05T06:33:36.791Z,8.90
2023-05-05T06:36:09.441Z,10.60
2023-05-05T06:38:39.755Z,8.80
2023-05-05T06:41:10.037Z,7.60
2023-05-05T06:43:42.906Z,12.00
2023-05-05T06:46:15.236Z,10.00
2023-05-05T06:48:46.122Z,8.80
2023-05-05T06:51:19.107Z,10.30
2023-05-05T06:53:49.539Z,9.70
2023-05-05T06:56:19.836Z,9.30
2023-05-05T06:58:50.479Z,11.10
2023-05-05T07:01:21.527Z,11.40
2023-05-05T07:03:52.331Z,12.50
2023-05-05T07:06:22.784Z,15.20
2023-05-05T07:08:53.511Z,11.20
2023-05-05T07:11:23.753Z,11.20
2023-05-05T07:13:54.311Z,12.50
2023-05-05T07:16:24.757Z,11.60
2023-05-05T07:18:55.180Z,10.50
2023-05-05T07:21:26.979Z,11.70
2023-05-05T07:23:58.216Z,11.10
2023-05-05T07:26:32.529Z,11.40
2023-05-05T07:29:07.489Z,10.50
2023-05-05T07:31:37.936Z,10.50
2023-05-05T07:34:08.408Z,10.00
2023-05-05T07:36:38.706Z,9.60
2023-05-05T07:39:09.143Z,10.50
2023-05-05T07:41:39.665Z,9.50
2023-05-05T07:44:09.929Z,10.70
2023-05-05T07:46:40.483Z,13.10
2023-05-05T07:49:10.874Z,12.90
2023-05-05T07:51:41.107Z,11.20
2023-05-05T07:54:13.021Z,14.20
2023-05-05T07:56:43.356Z,16.30
2023-05-05T07:59:13.969Z,11.00
2023-05-05T08:01:44.313Z,11.90
2023-05-05T08:04:14.681Z,14.40
2023-05-05T08:06:45.669Z,15.60
2023-05-05T08:09:16.780Z,17.60
2023-05-05T08:11:46.914Z,13.30
2023-05-05T08:14:17.490Z,14.90
2023-05-05T08:16:47.965Z,12.60
2023-05-05T08:19:28.842Z,17.70
2023-05-05T08:22:01.561Z,13.30
2023-05-05T08:24:32.192Z,13.60
2023-05-05T08:27:02.626Z,16.60
2023-05-05T08:29:33.219Z,15.30
2023-05-05T08:32:03.444Z,17.10
2023-05-05T08:34:33.776Z,12.80
2023-05-05T08:37:03.953Z,18.60
2023-05-05T08:39:34.141Z,13.60
2023-05-05T08:42:05.392Z,14.90
2023-05-05T08:44:36.174Z,12.10
2023-05-05T08:47:07.147Z,13.90
2023-05-05T08:49:46.354Z,11.90
2023-05-05T08:52:19.206Z,13.80
2023-05-05T08:54:54.830Z,14.30
2023-05-05T08:57:29.136Z,12.70
2023-05-05T08:59:59.722Z,13.10
2023-05-05T09:02:31.230Z,13.60
2023-05-05T09:05:05.050Z,10.50
2023-05-05T09:07:36.356Z,11.20
2023-05-05T09:10:08.440Z,11.70
2023-05-05T09:12:41.355Z,10.90
2023-05-05T09:15:13.660Z,12.50
2023-05-05T09:17:44.525Z,14.60
2023-05-05T09:20:16.160Z,11.90
2023-05-05T09:22:49.093Z,11.10
2023-05-05T09:25:19.916Z,16.90
2023-05-05T09:27:51.002Z,12.60
2023-05-05T09:30:27.257Z,11.70
2023-05-05T09:32:57.591Z,11.40
2023-05-05T09:35:27.816Z,10.10
2023-05-05T09:37:58.028Z,9.50
2023-05-05T09:40:28.286Z,9.10
2023-05-05T09:43:04.399Z,9.10
2023-05-05T09:45:35.035Z,8.60
2023-05-05T09:48:06.240Z,9.80
2023-05-05T09:50:45.476Z,10.50
2023-05-05T09:53:16.086Z,8.80
2023-05-05T09:55:55.053Z,9.60
2023-05-05T09:58:26.434Z,7.50
2023-05-05T10:00:57.551Z,6.60
2023-05-05T10:03:27.966Z,7.20
2023-05-05T10:06:00.953Z,10.40
2023-05-05T10:08:34.174Z,5.80
2023-05-05T10:11:06.958Z,8.90
2023-05-05T10:13:41.795Z,5.70
2023-05-05T10:16:14.510Z,6.90
2023-05-05T10:18:46.280Z,7.00
2023-05-05T10:21:22.106Z,7.00
2023-05-05T10:24:02.108Z,8.00
2023-05-05T10:26:35.440Z,6.00
2023-05-05T10:29:12.080Z,5.90
2023-05-05T10:31:46.044Z,4.50
2023-05-05T10:34:22.446Z,5.70
2023-05-05T10:36:55.121Z,5.60
2023-05-05T10:39:26.648Z,6.90
2023-05-05T10:41:58.741Z,5.10
2023-05-05T10:44:29.926Z,6.50
2023-05-05T10:47:00.861Z,6.00
2023-05-05T10:49:39.320Z,6.50
2023-05-05T10:52:15.111Z,6.30
2023-05-05T10:54:48.497Z,4.90
2023-05-05T10:57:21.604Z,5.20
2023-05-05T10:59:51.926Z,3.10
2023-05-05T11:02:24.527Z,8.20
2023-05-05T11:05:08.491Z,3.80
2023-05-05T11:07:38.999Z,5.10
2023-05-05T11:10:10.711Z,4.30
2023-05-05T11:13:11.220Z,3.50
2023-05-05T11:15:41.867Z,2.50
2023-05-05T11:18:31.298Z,3.40
2023-05-05T11:21:18.107Z,2.50
2023-05-05T11:23:52.956Z,3.80
2023-05-05T11:26:52.507Z,2.80
2023-05-05T11:29:22.849Z,6.80
2023-05-05T11:32:13.091Z,2.50
2023-05-05T11:34:51.909Z,2.30
2023-05-05T11:37:25.168Z,3.30
2023-05-05T11:40:09.392Z,4.40
2023-05-05T11:42:39.814Z,2.20
2023-05-05T11:45:23.757Z,2.50
2023-05-05T11:47:54.999Z,2.70
2023-05-05T11:52:55.174Z,3.60
2023-05-05T11:55:26.185Z,2.40
2023-05-05T11:57:56.584Z,1.80
2023-05-05T12:00:35.436Z,2.50
2023-05-05T12:03:06.427Z,2.80
2023-05-05T12:05:37.232Z,4.20
2023-05-05T12:08:07.845Z,3.20
2023-05-05T12:10:38.163Z,2.10
2023-05-05T12:13:20.383Z,3.70
2023-05-05T12:15:50.882Z,1.50
2023-05-05T12:18:21.765Z,2.30
2023-05-05T12:20:53.056Z,2.50
2023-05-05T12:23:23.648Z,4.80
2023-05-05T12:25:54.255Z,4.10
2023-05-05T12:28:24.695Z,4.40
2023-05-05T12:31:01.763Z,4.00
2023-05-05T12:33:32.329Z,2.00
2023-05-05T12:36:02.999Z,3.80
2023-05-05T12:38:33.446Z,2.30
2023-05-05T12:41:05.084Z,3.30
2023-05-05T12:43:36.337Z,3.60
2023-05-05T12:46:09.302Z,3.50
2023-05-05T12:48:46.350Z,5.40
2023-05-05T12:51:20.583Z,4.30
2023-05-05T12:54:02.270Z,2.10
2023-05-05T12:56:33.708Z,1.90
2023-05-05T12:59:04.725Z,2.70
2023-05-05T13:01:35.703Z,3.40
2023-05-05T13:04:13.937Z,2.40
2023-05-05T13:06:45.771Z,3.30
2023-05-05T13:09:26.860Z,2.50
2023-05-05T13:11:58.427Z,2.50
2023-05-05T13:16:57.379Z,2.40
2023-05-05T13:19:28.004Z,4.60
2023-05-05T13:21:59.086Z,2.20
2023-05-05T13:24:42.254Z,2.20
2023-05-05T13:27:23.668Z,2.30
2023-05-05T13:29:54.107Z,3.50
2023-05-05T13:32:24.926Z,2.40
2023-05-05T13:34:55.156Z,3.10
2023-05-05T13:37:25.571Z,2.30
2023-05-05T13:39:59.166Z,1.80
2023-05-05T13:42:29.337Z,3.90
2023-05-05T13:44:59.581Z,2.10
2023-05-05T13:47:29.825Z,3.60
2023-05-05T13:50:00.172Z,1.80
2023-05-05T13:52:31.797Z,2.10
2023-05-05T13:55:03.263Z,3.40
2023-05-05T13:57:33.478Z,2.20
2023-05-05T14:00:04.283Z,2.50
2023-05-05T14:02:37.776Z,2.60
2023-05-05T14:05:10.263Z,1.50
2023-05-05T14:07:40.810Z,1.30
2023-05-05T14:10:12.177Z,2.80
2023-05-05T14:12:42.464Z,3.00
2023-05-05T14:15:13.402Z,3.00
2023-05-05T14:17:43.647Z,3.70
2023-05-05T14:20:15.987Z,2.20
2023-05-05T14:22:48.782Z,1.50
2023-05-05T14:25:19.802Z,1.60
2023-05-05T14:27:50.897Z,3.10
2023-05-05T14:30:21.216Z,2.40
2023-05-05T14:32:51.501Z,1.80
2023-05-05T14:35:22.123Z,1.90
2023-05-05T14:37:52.290Z,2.60
2023-05-05T14:40:22.735Z,2.00
2023-05-05T14:42:53.002Z,3.50
2023-05-05T14:45:23.317Z,2.10
2023-05-05T14:47:53.808Z,2.10
2023-05-05T14:50:24.522Z,1.80
2023-05-05T14:52:54.877Z,2.30
2023-05-05T14:55:26.033Z,1.40
2023-05-05T14:57:56.254Z,1.40
2023-05-05T15:00:26.896Z,1.50
2023-05-05T15:02:57.362Z,2.60
2023-05-05T15:05:27.959Z,2.60
2023-05-05T15:07:58.572Z,2.60
2023-05-05T15:10:28.787Z,1.00
2023-05-05T15:12:59.200Z,8.00
2023-05-05T15:15:29.542Z,7.00
2023-05-05T15:17:59.794Z,2.20
2023-05-05T15:20:30.677Z,3.70
2023-05-05T15:23:01.321Z,6.50
2023-05-05T15:25:31.826Z,3.30
2023-05-05T15:28:02.071Z,1.50
2023-05-05T15:30:32.676Z,2.40
2023-05-05T15:33:03.361Z,2.20
2023-05-05T15:35:33.678Z,3.70
2023-05-05T15:38:04.704Z,2.00
2023-05-05T15:40:36.264Z,5.20
2023-05-05T15:43:06.774Z,3.90
2023-05-05T15:45:38.351Z,3.30
2023-05-05T15:48:09.184Z,2.40
2023-05-05T15:50:39.345Z,4.70
2023-05-05T15:53:09.553Z,2.60
2023-05-05T15:55:40.161Z,4.30
2023-05-05T15:58:10.621Z,3.10
2023-05-05T16:00:41.621Z,5.40
2023-05-05T16:03:11.914Z,5.00
2023-05-05T16:05:42.851Z,2.50
2023-05-05T16:08:13.085Z,2.10
2023-05-05T16:10:43.275Z,5.70
2023-05-05T16:13:13.930Z,2.60
2023-05-05T16:15:44.678Z,1.90
2023-05-05T16:18:14.875Z,4.10
2023-05-05T16:20:45.204Z,3.70
2023-05-05T16:23:16.137Z,3.40
2023-05-05T16:25:46.424Z,4.40
2023-05-05T16:28:16.814Z,2.20
2023-05-05T16:30:47.619Z,3.20
2023-05-05T16:33:17.809Z,3.50
2023-05-05T16:35:48.123Z,3.70
2023-05-05T16:38:18.381Z,2.10
2023-05-05T16:40:48.574Z,3.50
2023-05-05T16:43:19.719Z,3.60
2023-05-05T16:45:50.021Z,3.60
2023-05-05T16:48:20.272Z,4.70
2023-05-05T16:50:50.569Z,3.50
2023-05-05T16:53:20.789Z,3.20
2023-05-05T16:55:53.486Z,5.10
2023-05-05T17:00:52.948Z,2.10
2023-05-05T17:03:23.799Z,4.90
2023-05-05T17:05:55.099Z,4.00
2023-05-05T17:08:25.558Z,3.30
2023-05-05T17:10:56.014Z,4.50
2023-05-05T17:13:26.300Z,2.40
2023-05-05T17:15:56.548Z,4.40
2023-05-05T17:18:26.820Z,4.80
2023-05-05T17:20:57.124Z,3.50
2023-05-05T17:23:27.624Z,3.30
2023-05-05T17:25:59.495Z,3.10
2023-05-05T17:28:30.124Z,2.50
2023-05-05T17:31:01.591Z,2.30
2023-05-05T17:33:31.834Z,2.80
2023-05-05T17:36:02.174Z,3.20
2023-05-05T17:38:32.470Z,3.30
2023-05-05T17:41:03.092Z,8.60
2023-05-05T17:43:33.395Z,3.90
2023-05-05T17:46:03.790Z,8.40
2023-05-05T17:48:34.689Z,2.80
2023-05-05T17:51:05.285Z,3.20
2023-05-05T17:53:35.636Z,2.40
2023-05-05T17:56:08.725Z,3.50
2023-05-05T17:58:39.423Z,2.20
2023-05-05T18:01:13.425Z,2.80
2023-05-05T18:03:43.794Z,3.90
2023-05-05T18:06:14.218Z,4.30
2023-05-05T18:08:44.814Z,3.00
2023-05-05T18:11:15.406Z,4.90
2023-05-05T18:13:46.128Z,3.50
2023-05-05T18:16:16.424Z,4.00
2023-05-05T18:18:46.643Z,3.40
2023-05-05T18:21:17.018Z,4.40
2023-05-05T18:23:47.302Z,3.10
2023-05-05T18:26:17.621Z,2.70
2023-05-05T18:28:47.993Z,5.10
2023-05-05T18:31:18.249Z,3.50
2023-05-05T18:33:48.547Z,9.20
2023-05-05T18:36:19.333Z,4.00
2023-05-05T18:38:49.882Z,2.60
2023-05-05T18:41:20.347Z,1.70
2023-05-05T18:43:51.032Z,2.50
2023-05-05T18:46:22.428Z,2.90
2023-05-05T18:48:53.154Z,4.20
2023-05-05T18:51:23.432Z,2.60
2023-05-05T18:53:53.797Z,3.10
2023-05-05T18:56:24.113Z,5.50
2023-05-05T18:58:54.495Z,2.50
2023-05-05T19:01:25.444Z,4.30
2023-05-05T19:03:56.101Z,4.70
2023-05-05T19:06:27.272Z,2.70
2023-05-05T19:08:57.657Z,2.70
2023-05-05T19:11:28.310Z,3.10
2023-05-05T19:13:58.537Z,4.40
2023-05-05T19:16:30.119Z,3.30
2023-05-05T19:19:00.907Z,3.20
2023-05-05T19:21:31.667Z,2.20
2023-05-05T19:24:01.964Z,2.50
2023-05-05T19:26:32.854Z,3.70
2023-05-05T19:29:03.451Z,2.50
2023-05-05T19:31:34.313Z,3.30
2023-05-05T19:34:05.982Z,3.70
2023-05-05T19:36:36.674Z,2.70
2023-05-05T19:39:08.205Z,4.70
2023-05-05T19:41:38.624Z,4.00
2023-05-05T19:44:09.058Z,5.80
2023-05-05T19:46:39.471Z,4.30
2023-05-05T19:49:10.525Z,6.80
2023-05-05T19:51:42.078Z,3.40
2023-05-05T19:54:12.342Z,6.50
2023-05-05T19:56:42.690Z,2.60
2023-05-05T19:59:13.047Z,3.40
2023-05-05T20:01:43.380Z,4.20
2023-05-05T20:04:14.104Z,3.60
2023-05-05T20:06:44.408Z,2.40
2023-05-05T20:09:15.054Z,3.00
2023-05-05T20:11:45.416Z,2.30
2023-05-05T20:14:15.747Z,2.10
2023-05-05T20:16:46.020Z,3.40
2023-05-05T20:19:16.370Z,2.80
2023-05-05T20:21:46.533Z,2.90
2023-05-05T20:24:18.013Z,3.90
2023-05-05T20:26:48.344Z,3.60
2023-05-05T20:29:19.796Z,4.20
2023-05-05T20:31:50.323Z,2.90
2023-05-05T20:34:21.003Z,3.70
2023-05-05T20:36:52.571Z,1.90
2023-05-05T20:39:22.832Z,1.30
2023-05-05T20:41:53.051Z,3.30
2023-05-05T20:44:23.300Z,2.00
2023-05-05T20:46:53.681Z,3.20
2023-05-05T20:49:24.419Z,2.50
2023-05-05T20:51:54.722Z,3.20
2023-05-05T20:54:24.854Z,2.50
2023-05-05T20:56:58.200Z,1.60
2023-05-05T20:59:28.838Z,2.80
2023-05-05T21:02:00.049Z,5.20
2023-05-05T21:04:30.289Z,2.70
2023-05-05T21:07:00.588Z,2.80
2023-05-05T21:09:31.386Z,3.20
2023-05-05T21:12:02.098Z,4.10
2023-05-05T21:14:32.341Z,3.20
2023-05-05T21:17:02.676Z,2.20
2023-05-05T21:19:32.924Z,2.30
2023-05-05T21:22:03.171Z,4.10
2023-05-05T21:24:33.303Z,4.40
2023-05-05T21:27:03.497Z,2.80
2023-05-05T21:29:37.456Z,2.00
2023-05-05T21:32:08.250Z,2.70
2023-05-05T21:34:39.055Z,2.60
2023-05-05T21:37:09.363Z,5.30
2023-05-05T21:39:39.745Z,2.80
2023-05-05T21:42:10.040Z,1.60
2023-05-05T21:44:40.344Z,2.50
2023-05-05T21:47:11.940Z,2.50
2023-05-05T21:49:42.235Z,2.10
2023-05-05T21:52:12.452Z,2.00
2023-05-05T21:54:42.588Z,2.50
2023-05-05T21:57:13.576Z,2.30
2023-05-05T21:59:43.831Z,4.20
2023-05-05T22:02:14.000Z,4.00
2023-05-05T22:04:48.972Z,3.30
2023-05-05T22:07:33.005Z,2.40
2023-05-05T22:10:03.737Z,3.20
2023-05-05T22:12:34.273Z,2.20
2023-05-05T22:15:05.307Z,2.90
2023-05-05T22:17:36.100Z,5.10
2023-05-05T22:20:09.724Z,2.80
2023-05-05T22:22:40.646Z,2.60
2023-05-05T22:25:12.133Z,4.30
2023-05-05T22:27:42.849Z,3.50
2023-05-05T22:30:14.930Z,4.00
2023-05-05T22:32:46.276Z,3.10
2023-05-05T22:35:16.660Z,2.70
2023-05-05T22:37:46.881Z,4.00
2023-05-05T22:40:17.325Z,4.30
2023-05-05T22:42:47.623Z,3.10
2023-05-05T22:45:17.934Z,3.90
2023-05-05T22:47:48.200Z,6.50
2023-05-05T22:50:18.805Z,3.30
2023-05-05T22:52:49.063Z,3.20
2023-05-05T22:55:20.263Z,4.20
2023-05-05T22:57:52.611Z,3.30
2023-05-05T23:00:23.083Z,3.70
2023-05-05T23:02:53.384Z,6.20
2023-05-05T23:05:24.513Z,3.40
2023-05-05T23:07:54.812Z,4.10
2023-05-05T23:10:24.977Z,3.90
2023-05-05T23:12:55.377Z,4.10
2023-05-05T23:15:25.907Z,3.10
2023-05-05T23:17:56.148Z,4.50
2023-05-05T23:20:26.710Z,3.10
2023-05-05T23:22:57.531Z,5.10
2023-05-05T23:25:27.974Z,4.50
2023-05-05T23:27:58.931Z,5.10
2023-05-05T23:30:29.329Z,3.10
2023-05-05T23:33:01.038Z,4.80
2023-05-05T23:35:31.406Z,3.40
2023-05-05T23:38:01.901Z,4.00
2023-05-05T23:40:32.096Z,2.70
2023-05-05T23:43:02.472Z,3.00
2023-05-05T23:45:32.759Z,3.80
2023-05-05T23:48:03.027Z,4.20
2023-05-05T23:50:33.258Z,4.00
2023-05-05T23:53:03.494Z,4.30
2023-05-05T23:55:33.699Z,3.30
2023-05-05T23:58:03.823Z,3.50
